Spurstow, United Kingdom

3:57 AM GMT on January 24, 2017 (GMT +0000)
Brookvale | | Change Station

Elev 180 ft 53.32 °N, 2.68 °W | Updated 10 hours ago

Clear
Clear
36.9 °F
Feels Like 36.9 °F
N
0.0
Wind Variable Wind from North
Gusts 0.0 mph

Today
High -- | Low -- °F
--% Chance of Precip.
Yesterday
High -- | Low -- °F
Precip. -- in
Pressure 30.24 in
Visibility 6.2 miles
Clouds
Dew Point 34.5 °F
Humidity 91%
Rainfall 0.00 in
Snow Depth Not available.
8:06 AM 4:39 PM
Waning Crescent, 14% visible
METAR EGGP 240350Z AUTO 09004KT 9999 NCD 02/01 Q1024
Pressure 30.24 in
Visibility 6.2 miles
Clouds
Dew Point 34.5 °F
Humidity 91%
Rainfall 0.00 in
Snow Depth Not available.
8:06 AM 4:39 PM
Waning Crescent, 14% visible
METAR EGGP 240350Z AUTO 09004KT 9999 NCD 02/01 Q1024

Get Your Daily Forecast Email!

Thanks for signing up!

Be on the lookout for a verification email in your inbox.

You'll start receiving the daily forecast at 8 AM.

×

10-Day Weather Forecast

×

Almanac

Astronomy

Jan. 24, 2017 Rise Set
Actual Time
Civil Twilight
Nautical Twilight
Astronomical Twilight
Moon
Length of Visible Light
Length of Day
Tomorrow will be .
, % of the Moon is Illuminated

Today's Extremes

Country Highs Country Lows

Community

WunderPhotos

Upload Photos

1,962,540 photos uploaded!

WunderBlog® & News

Nearby

Air Quality

  Air Quality AQ Index Pollutant
Not available.

Snow Depth

Station Depth Elevation

Earthquake Activity

City Distance Mag. Time & Date
Minimum magnitude displayed is 2.5.

Coastal Water Temperatures

Place Temperature

Stations

Nearby Weather Stations

Station Location Temp. Windchill Dew Point Humidity Wind Precip. Elev Updated Type